Cielo Di Vaiano — D5AQ2 — position and weather

sailwx.info

Track history (hours):
 
Tides and Currents Weather Stations Pressure Air Temp Water Temp Dewpoint Dewpoint Depression Visibility Wind Speed Wind Dir Waves Ship Positions

Cielo Di Vaiano

Last reported at 2017-Jun-20 09:14 UTC. Time now 2017-Aug-18 04:40 UTC.
Position N 31°06' E 122°29'.
Warning: this ship's position is 58 days out of date.

Length 183 m; draft 7 m.

Type: Cargo ship. MMSI: 636015421.

Date/timePositionNaut miles runAvg speedWind from/ knotsBaromVisibWave heightAir tempDewpointWater temp
2017-Jun-20 09:14N 31°06' E 122°29'3 9.9
2017-Jun-20 08:58N 31°06' E 122°26'4 8.0
2017-Jun-20 08:30N 31°06' E 122°21'611.4
2017-Jun-20 08:00N 31°08' E 122°15'714.5
2017-Jun-20 07:30N 31°12' E 122°09'713.9
2017-Jun-20 07:00N 31°15' E 122°01'714.6
2017-Jun-20 06:30N 31°16' E 121°53'714.3
2017-Jun-20 06:00N 31°19' E 121°45'611.9
2017-Jun-20 05:30N 31°21' E 121°39'611.5
2017-Jun-20 05:00N 31°24' E 121°33'611.2
2017-Jun-20 04:30N 31°28' E 121°28'3 6.5
2017-Jun-20 04:00N 31°31' E 121°26'510.0
2017-Jun-20 03:30N 31°30' E 121°32'510.9
2017-Jun-20 03:01N 31°30' E 121°38'611.0
2017-Jun-20 02:30N 31°33' E 121°33'2 4.2
2017-Jun-20 02:01N 31°31' E 121°35'1 1.4
2017-Jun-20 01:30N 31°32' E 121°34'0 0.3
2017-Jun-20 01:00N 31°32' E 121°34'3 6.0
2017-Jun-20 00:30N 31°33' E 121°31'2 4.5
2017-Jun-20 00:00N 31°34' E 121°28'0 0.0
2017-Jun-19 23:30N 31°34' E 121°28'0 0.0
2017-Jun-19 23:00N 31°34' E 121°28'0 0.4
2017-Jun-19 22:30N 31°34' E 121°28'0 0.0
2017-Jun-19 21:57N 31°34' E 121°28'0 0.0
2017-Jun-19 21:27N 31°34' E 121°28'0 0.1
2017-Jun-19 21:00N 31°34' E 121°28'0 0.0
2017-Jun-19 20:27N 31°34' E 121°28'0 0.0
2017-Jun-19 20:00N 31°34' E 121°28'0 0.0
2017-Jun-19 19:30N 31°34' E 121°28'0 0.0
2017-Jun-19 18:57N 31°34' E 121°28'0 0.0
2017-Jun-19 18:30N 31°34' E 121°28'0 0.0
2017-Jun-19 18:00N 31°34' E 121°28'0 0.0
2017-Jun-19 17:27N 31°34' E 121°28'0 0.0
2017-Jun-19 17:00N 31°34' E 121°28'0 0.0
2017-Jun-19 16:30N 31°34' E 121°28'0 0.1
2017-Jun-19 16:00N 31°34' E 121°28'0 0.0
2017-Jun-19 15:27N 31°34' E 121°28'0 0.1
2017-Jun-19 15:00N 31°34' E 121°28'0 0.3
2017-Jun-19 14:30N 31°34' E 121°28'0 0.1
2017-Jun-19 13:30N 31°34' E 121°28'0 0.0
2017-Jun-19 12:48N 31°34' E 121°28'0 0.2
2017-Jun-19 12:30N 31°35' E 121°28'0 0.1
2017-Jun-19 11:57N 31°34' E 121°28'0 0.0
2017-Jun-19 11:27N 31°35' E 121°28'0 0.0
2017-Jun-19 11:00N 31°34' E 121°28'1 1.7
2017-Jun-19 10:30N 31°34' E 121°29'3 6.8
2017-Jun-19 10:01N 31°33' E 121°33'3 6.3
2017-Jun-19 09:30N 31°34' E 121°29'2 3.9
2017-Jun-19 09:00N 31°33' E 121°31'0 0.1
2017-Jun-19 08:25N 31°33' E 121°31'0 0.0
2017-Jun-19 07:55N 31°33' E 121°31'0 0.0
2017-Jun-19 07:28N 31°33' E 121°31'0 0.4
2017-Jun-19 06:58N 31°33' E 121°32'1 2.2
2017-Jun-19 06:30N 31°34' E 121°31'3 6.0
2017-Jun-19 06:00N 31°35' E 121°28'0 0.5
2017-Jun-19 05:28N 31°35' E 121°27'0 0.0
2017-Jun-19 04:58N 31°35' E 121°27'0 0.0
2017-Jun-19 04:25N 31°35' E 121°27'0 0.0
2017-Jun-19 03:58N 31°35' E 121°27'0 0.0
2017-Jun-19 03:28N 31°35' E 121°27'0 0.0
2017-Jun-19 02:55N 31°35' E 121°27'0 0.0
2017-Jun-19 02:25N 31°35' E 121°27'0 0.0
2017-Jun-19 01:58N 31°35' E 121°27'0 0.0
2017-Jun-19 01:28N 31°35' E 121°27'0 0.0
2017-Jun-19 00:58N 31°35' E 121°27'0 0.0
2017-Jun-19 00:28N 31°35' E 121°27'0 0.0
2017-Jun-18 23:58N 31°35' E 121°27'0 0.0
2017-Jun-18 23:28N 31°35' E 121°27'0 0.0
2017-Jun-18 22:55N 31°35' E 121°27'0 0.0
2017-Jun-18 22:28N 31°35' E 121°27'0 0.0
2017-Jun-18 21:58N 31°35' E 121°27'0 0.0
2017-Jun-18 21:28N 31°35' E 121°27'0 0.0
2017-Jun-18 20:58N 31°35' E 121°27'0 0.0
2017-Jun-18 20:28N 31°35' E 121°27'0 0.0
2017-Jun-18 19:58N 31°35' E 121°27'0 0.0
2017-Jun-18 19:28N 31°35' E 121°27'0 0.0
2017-Jun-18 18:55N 31°35' E 121°27'0 0.0
2017-Jun-18 18:28N 31°35' E 121°27'0 0.0
2017-Jun-18 17:58N 31°35' E 121°27'0 0.0
2017-Jun-18 17:28N 31°35' E 121°27'0 0.0
2017-Jun-18 16:58N 31°35' E 121°27'0 0.0
2017-Jun-18 16:28N 31°35' E 121°27'0 0.0
2017-Jun-18 15:58N 31°35' E 121°27'0 0.0
2017-Jun-18 15:28N 31°35' E 121°27'0 0.0
2017-Jun-18 14:49N 31°35' E 121°27'0 0.0
2017-Jun-18 13:55N 31°35' E 121°27'0 0.0
2017-Jun-18 13:28N 31°35' E 121°27'0 0.0
2017-Jun-18 12:58N 31°35' E 121°27'0 0.0
2017-Jun-18 12:28N 31°35' E 121°27'0 0.0
2017-Jun-18 11:58N 31°35' E 121°27'0 0.0
2017-Jun-18 11:28N 31°35' E 121°27'0 0.0
2017-Jun-18 10:55N 31°35' E 121°27'0 0.0
2017-Jun-18 10:25N 31°35' E 121°27'0 0.0
2017-Jun-18 09:58N 31°35' E 121°27'0 0.0
2017-Jun-18 09:25N 31°35' E 121°27'0 0.0
2017-Jun-18 08:58N 31°35' E 121°27'0 0.0
2017-Jun-18 08:28N 31°35' E 121°27'0 0.0
2017-Jun-18 07:58N 31°35' E 121°27'0 0.0
2017-Jun-18 07:28N 31°35' E 121°27'0 0.0
2017-Jun-18 06:58N 31°35' E 121°27'0 0.0
2017-Jun-18 06:28N 31°35' E 121°27'0 0.0
2017-Jun-18 05:58N 31°35' E 121°27'0 0.0
2017-Jun-18 05:28N 31°35' E 121°27'0 0.0
2017-Jun-18 04:58N 31°35' E 121°27'0 0.0
2017-Jun-18 04:28N 31°35' E 121°27'0 0.0
2017-Jun-18 03:55N 31°35' E 121°27'0 0.0
2017-Jun-18 03:28N 31°35' E 121°27'0 0.0
2017-Jun-18 02:58N 31°35' E 121°27'0 0.0
2017-Jun-18 02:22N 31°35' E 121°27'0 0.0
2017-Jun-18 01:58N 31°35' E 121°27'0 0.0
2017-Jun-18 01:28N 31°35' E 121°27'0 0.0
2017-Jun-18 00:58N 31°35' E 121°27'0 0.0
2017-Jun-18 00:22N 31°35' E 121°27'0 0.0
2017-Jun-17 23:58N 31°35' E 121°27'0 0.0
2017-Jun-17 23:28N 31°35' E 121°27'0 0.0
2017-Jun-17 22:58N 31°35' E 121°27'0 0.0
2017-Jun-17 22:28N 31°35' E 121°27'0 0.0
2017-Jun-17 21:58N 31°35' E 121°27'0 0.0
2017-Jun-17 21:28N 31°35' E 121°27'0 0.0
2017-Jun-17 20:58N 31°35' E 121°27'0 0.0
2017-Jun-17 20:28N 31°35' E 121°27'0 0.0
2017-Jun-17 19:58N 31°35' E 121°27'0 0.0
2017-Jun-17 19:25N 31°35' E 121°27'0 0.0
2017-Jun-17 18:58N 31°35' E 121°27'0 0.0
2017-Jun-17 18:28N 31°35' E 121°27'0 0.0
2017-Jun-17 17:58N 31°35' E 121°27'0 0.0
2017-Jun-17 17:28N 31°35' E 121°27'0 0.0
2017-Jun-17 16:55N 31°35' E 121°27'0 0.0
2017-Jun-17 16:28N 31°35' E 121°27'0 0.0
2017-Jun-17 15:58N 31°35' E 121°27'0 0.0
2017-Jun-17 15:25N 31°35' E 121°27'0 0.0
2017-Jun-17 14:58N 31°35' E 121°27'0 0.0
2017-Jun-17 14:28N 31°35' E 121°27'0 0.0
2017-Jun-17 13:28N 31°35' E 121°27'0 0.0
2017-Jun-17 12:58N 31°35' E 121°27'0 0.0
2017-Jun-17 12:28N 31°35' E 121°27'0 0.0
2017-Jun-17 11:55N 31°35' E 121°27'0 0.0
2017-Jun-17 11:28N 31°35' E 121°27'0 0.0
2017-Jun-17 10:55N 31°35' E 121°27'0 0.0
2017-Jun-17 10:28N 31°35' E 121°27'0 0.0
2017-Jun-17 09:55N 31°35' E 121°27'0 0.0
2017-Jun-17 09:28N 31°35' E 121°27'0 0.0
2017-Jun-17 08:58N 31°35' E 121°27'0 0.0
2017-Jun-17 08:25N 31°35' E 121°27'0 0.0
2017-Jun-17 07:55N 31°35' E 121°27'0 0.0
2017-Jun-17 07:25N 31°35' E 121°27'0 0.0
2017-Jun-17 06:58N 31°35' E 121°27'0 0.0
2017-Jun-17 06:25N 31°35' E 121°27'0 0.0
2017-Jun-17 05:55N 31°35' E 121°27'0 0.0
2017-Jun-17 05:28N 31°35' E 121°27'0 0.0
2017-Jun-17 04:58N 31°35' E 121°27'0 0.0
2017-Jun-17 04:19N 31°35' E 121°27'0 0.0
2017-Jun-17 03:58N 31°35' E 121°27'0 0.0
2017-Jun-17 03:28N 31°35' E 121°27'0 0.0
2017-Jun-17 02:58N 31°35' E 121°27'0 0.0
2017-Jun-17 02:28N 31°35' E 121°27'0 0.0
2017-Jun-17 01:58N 31°35' E 121°27'0 0.0
2017-Jun-17 01:28N 31°35' E 121°27'0 0.0
2017-Jun-17 00:58N 31°35' E 121°27'0 0.0
2017-Jun-17 00:28N 31°35' E 121°27'0 0.0
2017-Jun-16 23:58N 31°35' E 121°27'0 0.0
2017-Jun-16 23:28N 31°35' E 121°27'0 0.0
2017-Jun-16 22:58N 31°35' E 121°27'0 0.0
2017-Jun-16 22:25N 31°35' E 121°27'0 0.0
2017-Jun-16 21:55N 31°35' E 121°27'0 0.0
2017-Jun-16 21:28N 31°35' E 121°27'0 0.0
2017-Jun-16 20:58N 31°35' E 121°27'0 0.0
2017-Jun-16 20:28N 31°35' E 121°27'0 0.0
2017-Jun-16 19:58N 31°35' E 121°27'0 0.0
2017-Jun-16 19:28N 31°35' E 121°27'0 0.0
2017-Jun-16 18:58N 31°35' E 121°27'0 0.0
2017-Jun-16 18:28N 31°35' E 121°27'0 0.0
2017-Jun-16 17:55N 31°35' E 121°27'0 0.0
2017-Jun-16 17:28N 31°35' E 121°27'0 0.0
2017-Jun-16 16:58N 31°35' E 121°27'0 0.0
2017-Jun-16 16:25N 31°35' E 121°27'0 0.0
2017-Jun-16 15:58N 31°35' E 121°27'0 0.0
2017-Jun-16 15:28N 31°35' E 121°27'0 0.0
2017-Jun-16 14:58N 31°35' E 121°27'0 0.0
2017-Jun-16 14:28N 31°35' E 121°27'0 0.0
2017-Jun-16 13:28N 31°35' E 121°27'0 0.0
2017-Jun-16 12:58N 31°35' E 121°27'0 0.0
2017-Jun-16 12:28N 31°35' E 121°27'0 0.0
2017-Jun-16 11:58N 31°35' E 121°27'0 0.0
2017-Jun-16 11:28N 31°35' E 121°27'0 0.0
2017-Jun-16 10:49N 31°35' E 121°27'0 0.0
2017-Jun-16 10:28N 31°35' E 121°27'0 0.0
2017-Jun-16 09:58N 31°35' E 121°27'0 0.0
2017-Jun-16 09:28N 31°35' E 121°27'0 0.0
2017-Jun-16 08:58N 31°35' E 121°27'0 0.0
2017-Jun-16 08:28N 31°35' E 121°27'0 0.0
2017-Jun-16 07:58N 31°35' E 121°27'0 0.0
2017-Jun-16 07:22N 31°35' E 121°27'0 0.0
2017-Jun-16 06:55N 31°35' E 121°27'0 0.0
2017-Jun-16 06:28N 31°35' E 121°27'0 0.0
2017-Jun-16 05:58N 31°35' E 121°27'0 0.0
2017-Jun-16 05:28N 31°35' E 121°27'0 0.0
2017-Jun-16 04:58N 31°35' E 121°27'0 0.0
2017-Jun-16 04:28N 31°35' E 121°27'0 0.0
2017-Jun-16 03:58N 31°35' E 121°27'0 0.0
2017-Jun-16 03:25N 31°35' E 121°27'0 0.0
2017-Jun-16 02:58N 31°35' E 121°27'0 0.0
2017-Jun-16 02:25N 31°35' E 121°27'0 0.0
2017-Jun-16 01:58N 31°35' E 121°27'0 0.0
2017-Jun-16 01:28N 31°35' E 121°27'0 0.0
2017-Jun-16 00:55N 31°35' E 121°27'0 0.0
2017-Jun-16 00:28N 31°35' E 121°27'0 0.0
2017-Jun-15 23:58N 31°35' E 121°27'0 0.0
2017-Jun-15 23:25N 31°35' E 121°27'0 0.0
2017-Jun-15 22:58N 31°35' E 121°27'0 0.0
2017-Jun-15 22:28N 31°35' E 121°27'0 0.0
2017-Jun-15 21:58N 31°35' E 121°27'0 0.0
2017-Jun-15 21:28N 31°35' E 121°27'0 0.0
2017-Jun-15 20:58N 31°35' E 121°27'0 0.0
2017-Jun-15 20:28N 31°35' E 121°27'0 0.0
2017-Jun-15 19:55N 31°35' E 121°27'0 0.0
2017-Jun-15 19:28N 31°35' E 121°27'0 0.0
2017-Jun-15 18:58N 31°35' E 121°27'0 0.0
2017-Jun-15 18:25N 31°35' E 121°27'0 0.0
2017-Jun-15 17:55N 31°35' E 121°27'0 0.0
2017-Jun-15 17:28N 31°35' E 121°27'0 0.0
2017-Jun-15 16:55N 31°35' E 121°27'0 0.0
2017-Jun-15 16:28N 31°35' E 121°27'0 0.0
2017-Jun-15 15:58N 31°35' E 121°27'0 0.0
2017-Jun-15 15:28N 31°35' E 121°27'0 0.0
2017-Jun-15 14:55N 31°35' E 121°27'0 0.0
2017-Jun-15 13:58N 31°35' E 121°27'0 0.0
2017-Jun-15 13:28N 31°35' E 121°27'0 0.0
2017-Jun-15 12:58N 31°35' E 121°27'0 0.0
2017-Jun-15 12:28N 31°35' E 121°27'0 0.0
2017-Jun-15 11:58N 31°35' E 121°27'0 0.0
2017-Jun-15 11:25N 31°35' E 121°27'0 0.0
2017-Jun-15 10:58N 31°35' E 121°27'0 0.0
2017-Jun-15 10:25N 31°35' E 121°27'0 0.0
2017-Jun-15 09:58N 31°35' E 121°27'0 0.0
2017-Jun-15 09:28N 31°35' E 121°27'0 0.0
2017-Jun-15 08:58N 31°35' E 121°27'0 0.0
2017-Jun-15 08:28N 31°35' E 121°27'0 0.0
2017-Jun-15 07:58N 31°35' E 121°27'0 0.0
2017-Jun-15 07:25N 31°35' E 121°27'0 0.0
2017-Jun-15 06:55N 31°35' E 121°27'0 0.0
2017-Jun-15 06:28N 31°35' E 121°27'0 0.0
2017-Jun-15 05:58N 31°35' E 121°27'0 0.0
2017-Jun-15 05:19N 31°35' E 121°27'0 0.0
2017-Jun-15 04:58N 31°35' E 121°27'0 0.0
2017-Jun-15 04:28N 31°35' E 121°27'0 0.0
2017-Jun-15 03:58N 31°35' E 121°27'0 0.0
2017-Jun-15 03:28N 31°35' E 121°27'0 0.0
2017-Jun-15 02:52N 31°35' E 121°27'0 0.0
2017-Jun-15 02:28N 31°35' E 121°27'0 0.0
2017-Jun-14 19:58N 31°35' E 121°27'0 0.0
2017-Jun-14 19:25N 31°35' E 121°27'0 0.0
2017-Jun-14 18:58N 31°35' E 121°27'0 0.0
2017-Jun-14 18:28N 31°35' E 121°27'0 0.0
2017-Jun-14 17:58N 31°35' E 121°27'0 0.0
2017-Jun-14 17:22N 31°35' E 121°27'0 0.0
2017-Jun-14 16:58N 31°35' E 121°27'0 0.0
2017-Jun-14 16:28N 31°35' E 121°27'0 0.0
2017-Jun-14 15:58N 31°35' E 121°27'0 0.0
2017-Jun-14 15:28N 31°35' E 121°27'0 0.0
2017-Jun-14 14:58N 31°35' E 121°27'0 0.0
2017-Jun-14 13:58N 31°35' E 121°27'0 0.0
2017-Jun-14 13:28N 31°35' E 121°27'0 0.0
2017-Jun-14 12:58N 31°35' E 121°27'0 0.0
2017-Jun-14 12:28N 31°35' E 121°27'0 0.0
2017-Jun-14 11:55N 31°35' E 121°27'0 0.0
2017-Jun-14 11:28N 31°35' E 121°27'0 0.0
2017-Jun-14 10:58N 31°35' E 121°27'0 0.0
2017-Jun-14 10:28N 31°35' E 121°27'0 0.0
2017-Jun-14 09:52N 31°35' E 121°27'0 0.0
2017-Jun-14 09:28N 31°35' E 121°27'0 0.0
2017-Jun-14 08:58N 31°35' E 121°27'0 0.0
2017-Jun-14 08:22N 31°35' E 121°27'0 0.0
2017-Jun-14 07:58N 31°35' E 121°27'0 0.0
2017-Jun-14 07:28N 31°35' E 121°27'0 0.0
2017-Jun-14 06:58N 31°35' E 121°27'0 0.0
2017-Jun-14 06:28N 31°35' E 121°27'0 0.0
2017-Jun-14 05:58N 31°35' E 121°27'0 0.0
2017-Jun-14 05:28N 31°35' E 121°27'0 0.0
2017-Jun-14 04:58N 31°35' E 121°27'0 0.0
2017-Jun-14 04:28N 31°35' E 121°27'0 0.0
2017-Jun-14 03:58N 31°35' E 121°27'0 0.0
2017-Jun-14 03:28N 31°35' E 121°27'0 0.0
2017-Jun-14 02:55N 31°35' E 121°27'0 0.0
2017-Jun-14 02:28N 31°35' E 121°27'0 0.0
2017-Jun-14 01:58N 31°35' E 121°27'0 0.0
2017-Jun-14 01:28N 31°35' E 121°27'0 0.0
2017-Jun-14 00:49N 31°35' E 121°27'0 0.0
2017-Jun-14 00:28N 31°35' E 121°27'0 0.0
2017-Jun-13 23:58N 31°35' E 121°27'0 0.0
2017-Jun-13 23:28N 31°35' E 121°27'0 0.0
2017-Jun-13 22:58N 31°35' E 121°27'0 0.0
2017-Jun-13 22:28N 31°35' E 121°27'0 0.0
2017-Jun-13 21:58N 31°35' E 121°27'0 0.0
2017-Jun-13 21:25N 31°35' E 121°27'0 0.0
2017-Jun-13 20:55N 31°35' E 121°27'0 0.0
2017-Jun-13 20:25N 31°35' E 121°27'0 0.0
2017-Jun-13 19:58N 31°35' E 121°27'0 0.0
2017-Jun-13 19:28N 31°35' E 121°27'0 0.0
2017-Jun-13 18:55N 31°35' E 121°27'0 0.0
2017-Jun-13 18:28N 31°35' E 121°27'0 0.0
2017-Jun-13 17:58N 31°35' E 121°27'0 0.0
2017-Jun-13 17:28N 31°35' E 121°27'0 0.0
2017-Jun-13 16:58N 31°35' E 121°27'0 0.0
2017-Jun-13 16:25N 31°35' E 121°27'0 0.0
2017-Jun-13 15:58N 31°35' E 121°27'0 0.0
2017-Jun-13 15:25N 31°35' E 121°27'0 0.0
2017-Jun-13 14:58N 31°35' E 121°27'0 0.0
2017-Jun-13 13:58N 31°35' E 121°27'0 0.0
2017-Jun-13 13:28N 31°35' E 121°27'0 0.0
2017-Jun-13 12:58N 31°35' E 121°27'0 0.0
2017-Jun-13 12:25N 31°35' E 121°27'0 0.0
2017-Jun-13 11:58N 31°35' E 121°27'0 0.0
2017-Jun-13 11:28N 31°35' E 121°27'0 0.0
2017-Jun-13 10:58N 31°35' E 121°27'0 0.0
2017-Jun-13 10:25N 31°35' E 121°27'0 0.0
2017-Jun-13 09:58N 31°35' E 121°27'0 0.0
2017-Jun-13 09:28N 31°35' E 121°27'0 0.0
2017-Jun-13 08:58N 31°35' E 121°27'0 0.0
2017-Jun-13 08:28N 31°35' E 121°27'0 0.0
2017-Jun-13 07:58N 31°35' E 121°27'0 0.0
2017-Jun-13 07:25N 31°35' E 121°27'0 0.0
2017-Jun-13 06:55N 31°35' E 121°27'0 0.0
2017-Jun-13 06:28N 31°35' E 121°27'0 0.0
2017-Jun-13 05:58N 31°35' E 121°27'0 0.0
2017-Jun-13 05:28N 31°35' E 121°27'0 0.0
2017-Jun-13 04:58N 31°35' E 121°27'0 0.0
2017-Jun-13 04:25N 31°35' E 121°27'0 0.0
2017-Jun-13 03:58N 31°35' E 121°27'0 0.0
2017-Jun-13 03:28N 31°35' E 121°27'0 0.0
2017-Jun-13 02:58N 31°35' E 121°27'0 0.0
2017-Jun-13 02:28N 31°35' E 121°27'0 0.0
2017-Jun-13 01:58N 31°35' E 121°27'0 0.0
2017-Jun-13 01:25N 31°35' E 121°27'0 0.0
2017-Jun-13 00:55N 31°35' E 121°27'0 0.0
2017-Jun-13 00:28N 31°35' E 121°27'0 0.0
2017-Jun-12 23:58N 31°35' E 121°27'0 0.0
2017-Jun-12 23:28N 31°35' E 121°27'0 0.0
2017-Jun-12 22:55N 31°35' E 121°27'0 0.0
2017-Jun-12 22:28N 31°35' E 121°27'0 0.0
2017-Jun-12 21:58N 31°35' E 121°27'0 0.0
2017-Jun-12 21:25N 31°35' E 121°27'0 0.0
2017-Jun-12 20:58N 31°35' E 121°27'0 0.0
2017-Jun-12 20:28N 31°35' E 121°27'0 0.0
2017-Jun-12 19:58N 31°35' E 121°27'0 0.0
2017-Jun-12 19:28N 31°35' E 121°27'0 0.0
2017-Jun-12 18:58N 31°35' E 121°27'0 0.0
2017-Jun-12 18:28N 31°35' E 121°27'0 0.0
2017-Jun-12 17:58N 31°35' E 121°27'0 0.0
2017-Jun-12 17:28N 31°35' E 121°27'0 0.0
2017-Jun-12 16:49N 31°35' E 121°27'0 0.0
2017-Jun-12 16:28N 31°35' E 121°27'0 0.0
2017-Jun-12 15:58N 31°35' E 121°27'0 0.0
2017-Jun-12 15:25N 31°35' E 121°27'0 0.0
2017-Jun-12 14:58N 31°35' E 121°27'0 0.0
2017-Jun-12 14:28N 31°35' E 121°27'0 0.0
2017-Jun-12 13:28N 31°35' E 121°27'0 0.0
2017-Jun-12 12:58N 31°35' E 121°27'0 0.0
2017-Jun-12 12:28N 31°35' E 121°27'0 0.0
2017-Jun-12 11:58N 31°35' E 121°27'0 0.0
2017-Jun-12 11:28N 31°35' E 121°27'0 0.0
2017-Jun-12 10:58N 31°35' E 121°27'0 0.0
2017-Jun-12 10:28N 31°35' E 121°27'0 0.0
2017-Jun-12 09:55N 31°35' E 121°27'0 0.0
2017-Jun-12 09:28N 31°35' E 121°27'0 0.0
2017-Jun-12 08:58N 31°35' E 121°27'0 0.0
2017-Jun-12 08:28N 31°35' E 121°27'0 0.0
2017-Jun-12 07:58N 31°35' E 121°27'0 0.0
2017-Jun-12 07:28N 31°35' E 121°27'0 0.0
2017-Jun-12 06:58N 31°35' E 121°27'0 0.0
2017-Jun-12 06:28N 31°35' E 121°27'0 0.0
2017-Jun-12 05:58N 31°35' E 121°27'0 0.0
2017-Jun-12 05:28N 31°35' E 121°27'0 0.0
2017-Jun-12 04:58N 31°35' E 121°27'0 0.0
2017-Jun-12 04:22N 31°35' E 121°27'0 0.0
2017-Jun-12 03:55N 31°35' E 121°27'0 0.0
2017-Jun-12 03:28N 31°35' E 121°27'0 0.0
2017-Jun-12 02:58N 31°35' E 121°27'0 0.0
2017-Jun-12 02:28N 31°35' E 121°27'0 0.0
2017-Jun-12 01:58N 31°35' E 121°27'0 0.0
2017-Jun-12 01:25N 31°35' E 121°27'0 0.0
2017-Jun-12 00:58N 31°35' E 121°27'0 0.0
2017-Jun-12 00:28N 31°35' E 121°27'0 0.0
2017-Jun-11 23:58N 31°35' E 121°27'0 0.0
2017-Jun-11 23:28N 31°35' E 121°27'0 0.0
2017-Jun-11 22:58N 31°35' E 121°27'0 0.0
2017-Jun-11 22:28N 31°35' E 121°27'0 0.0
2017-Jun-11 21:58N 31°35' E 121°27'0 0.0
2017-Jun-11 21:28N 31°35' E 121°27'0 0.0
2017-Jun-11 20:55N 31°35' E 121°27'0 0.0
2017-Jun-11 20:28N 31°35' E 121°27'0 0.0
2017-Jun-11 19:55N 31°35' E 121°27'0 0.0
2017-Jun-11 19:28N 31°35' E 121°27'0 0.0
2017-Jun-11 18:58N 31°35' E 121°27'0 0.0
2017-Jun-11 18:28N 31°35' E 121°27'0 0.0
2017-Jun-11 17:55N 31°35' E 121°27'0 0.0
2017-Jun-11 17:28N 31°35' E 121°27'0 0.0
2017-Jun-11 16:58N 31°35' E 121°27'0 0.0
2017-Jun-11 16:25N 31°35' E 121°27'0 0.0
2017-Jun-11 15:58N 31°35' E 121°27'0 0.0
2017-Jun-11 15:25N 31°35' E 121°27'0 0.0
2017-Jun-11 14:58N 31°35' E 121°27'0 0.0
2017-Jun-11 14:28N 31°35' E 121°27'0 0.0
2017-Jun-11 13:28N 31°35' E 121°27'0 0.0
2017-Jun-11 12:52N 31°35' E 121°27'0 0.0
2017-Jun-11 12:28N 31°35' E 121°27'0 0.0
2017-Jun-11 11:58N 31°35' E 121°27'0 0.0
2017-Jun-11 11:28N 31°35' E 121°27'0 0.0
2017-Jun-11 10:58N 31°35' E 121°27'0 0.0
2017-Jun-11 10:28N 31°35' E 121°27'0 0.0
2017-Jun-11 09:58N 31°35' E 121°27'0 0.0
2017-Jun-11 09:28N 31°35' E 121°27'0 0.0
2017-Jun-11 08:58N 31°35' E 121°27'0 0.0
2017-Jun-11 08:28N 31°35' E 121°27'0 0.0
2017-Jun-11 07:58N 31°35' E 121°27'0 0.0
2017-Jun-11 07:25N 31°35' E 121°27'0 0.0
2017-Jun-11 06:52N 31°35' E 121°27'0 0.0
2017-Jun-11 06:28N 31°35' E 121°27'0 0.0
2017-Jun-11 05:58N 31°35' E 121°27'0 0.0
2017-Jun-11 05:28N 31°35' E 121°27'0 0.0
2017-Jun-11 04:51N 31°35' E 121°27'0 0.0
2017-Jun-11 04:27N 31°35' E 121°27'0 0.0
2017-Jun-11 04:00N 31°35' E 121°27'0 0.0
2017-Jun-11 03:27N 31°35' E 121°27'0 0.0
2017-Jun-11 03:00N 31°35' E 121°27'0 0.0
2017-Jun-11 02:30N 31°35' E 121°27'  
Track history (hours):
 
Tides and Currents Weather Stations Pressure Air Temp Water Temp Dewpoint Dewpoint Depression Visibility Wind Speed Wind Dir Waves Ship Positions

Cielo Di Vaiano

Last reported at 2017-Jun-20 09:14 UTC. Time now 2017-Aug-18 04:40 UTC.
Position N 31°06' E 122°29'.
Warning: this ship's position is 58 days out of date.

Length 183 m; draft 7 m.

Type: Cargo ship. MMSI: 636015421.

Date/timePositionNaut miles runAvg speedWind from/ knotsBaromVisibWave heightAir tempDewpointWater temp
2017-Jun-20 09:14N 31°06' E 122°29'3 9.9
2017-Jun-20 08:58N 31°06' E 122°26'4 8.0
2017-Jun-20 08:30N 31°06' E 122°21'611.4
2017-Jun-20 08:00N 31°08' E 122°15'714.5
2017-Jun-20 07:30N 31°12' E 122°09'713.9
2017-Jun-20 07:00N 31°15' E 122°01'714.6
2017-Jun-20 06:30N 31°16' E 121°53'714.3
2017-Jun-20 06:00N 31°19' E 121°45'611.9
2017-Jun-20 05:30N 31°21' E 121°39'611.5
2017-Jun-20 05:00N 31°24' E 121°33'611.2
2017-Jun-20 04:30N 31°28' E 121°28'3 6.5
2017-Jun-20 04:00N 31°31' E 121°26'510.0
2017-Jun-20 03:30N 31°30' E 121°32'510.9
2017-Jun-20 03:01N 31°30' E 121°38'611.0
2017-Jun-20 02:30N 31°33' E 121°33'2 4.2
2017-Jun-20 02:01N 31°31' E 121°35'1 1.4
2017-Jun-20 01:30N 31°32' E 121°34'0 0.3
2017-Jun-20 01:00N 31°32' E 121°34'3 6.0
2017-Jun-20 00:30N 31°33' E 121°31'2 4.5
2017-Jun-20 00:00N 31°34' E 121°28'0 0.0
2017-Jun-19 23:30N 31°34' E 121°28'0 0.0
2017-Jun-19 23:00N 31°34' E 121°28'0 0.4
2017-Jun-19 22:30N 31°34' E 121°28'0 0.0
2017-Jun-19 21:57N 31°34' E 121°28'0 0.0
2017-Jun-19 21:27N 31°34' E 121°28'0 0.1
2017-Jun-19 21:00N 31°34' E 121°28'0 0.0
2017-Jun-19 20:27N 31°34' E 121°28'0 0.0
2017-Jun-19 20:00N 31°34' E 121°28'0 0.0
2017-Jun-19 19:30N 31°34' E 121°28'0 0.0
2017-Jun-19 18:57N 31°34' E 121°28'0 0.0
2017-Jun-19 18:30N 31°34' E 121°28'0 0.0
2017-Jun-19 18:00N 31°34' E 121°28'0 0.0
2017-Jun-19 17:27N 31°34' E 121°28'0 0.0
2017-Jun-19 17:00N 31°34' E 121°28'0 0.0
2017-Jun-19 16:30N 31°34' E 121°28'0 0.1
2017-Jun-19 16:00N 31°34' E 121°28'0 0.0
2017-Jun-19 15:27N 31°34' E 121°28'0 0.1
2017-Jun-19 15:00N 31°34' E 121°28'0 0.3
2017-Jun-19 14:30N 31°34' E 121°28'0 0.1
2017-Jun-19 13:30N 31°34' E 121°28'0 0.0
2017-Jun-19 12:48N 31°34' E 121°28'0 0.2
2017-Jun-19 12:30N 31°35' E 121°28'0 0.1
2017-Jun-19 11:57N 31°34' E 121°28'0 0.0
2017-Jun-19 11:27N 31°35' E 121°28'0 0.0
2017-Jun-19 11:00N 31°34' E 121°28'1 1.7
2017-Jun-19 10:30N 31°34' E 121°29'3 6.8
2017-Jun-19 10:01N 31°33' E 121°33'3 6.3
2017-Jun-19 09:30N 31°34' E 121°29'2 3.9
2017-Jun-19 09:00N 31°33' E 121°31'0 0.1
2017-Jun-19 08:25N 31°33' E 121°31'0 0.0
2017-Jun-19 07:55N 31°33' E 121°31'0 0.0
2017-Jun-19 07:28N 31°33' E 121°31'0 0.4
2017-Jun-19 06:58N 31°33' E 121°32'1 2.2
2017-Jun-19 06:30N 31°34' E 121°31'3 6.0
2017-Jun-19 06:00N 31°35' E 121°28'0 0.5
2017-Jun-19 05:28N 31°35' E 121°27'0 0.0
2017-Jun-19 04:58N 31°35' E 121°27'0 0.0
2017-Jun-19 04:25N 31°35' E 121°27'0 0.0
2017-Jun-19 03:58N 31°35' E 121°27'0 0.0
2017-Jun-19 03:28N 31°35' E 121°27'0 0.0
2017-Jun-19 02:55N 31°35' E 121°27'0 0.0
2017-Jun-19 02:25N 31°35' E 121°27'0 0.0
2017-Jun-19 01:58N 31°35' E 121°27'0 0.0
2017-Jun-19 01:28N 31°35' E 121°27'0 0.0
2017-Jun-19 00:58N 31°35' E 121°27'0 0.0
2017-Jun-19 00:28N 31°35' E 121°27'0 0.0
2017-Jun-18 23:58N 31°35' E 121°27'0 0.0
2017-Jun-18 23:28N 31°35' E 121°27'0 0.0
2017-Jun-18 22:55N 31°35' E 121°27'0 0.0
2017-Jun-18 22:28N 31°35' E 121°27'0 0.0
2017-Jun-18 21:58N 31°35' E 121°27'0 0.0
2017-Jun-18 21:28N 31°35' E 121°27'0 0.0
2017-Jun-18 20:58N 31°35' E 121°27'0 0.0
2017-Jun-18 20:28N 31°35' E 121°27'0 0.0
2017-Jun-18 19:58N 31°35' E 121°27'0 0.0
2017-Jun-18 19:28N 31°35' E 121°27'0 0.0
2017-Jun-18 18:55N 31°35' E 121°27'0 0.0
2017-Jun-18 18:28N 31°35' E 121°27'0 0.0
2017-Jun-18 17:58N 31°35' E 121°27'0 0.0
2017-Jun-18 17:28N 31°35' E 121°27'0 0.0
2017-Jun-18 16:58N 31°35' E 121°27'0 0.0
2017-Jun-18 16:28N 31°35' E 121°27'0 0.0
2017-Jun-18 15:58N 31°35' E 121°27'0 0.0
2017-Jun-18 15:28N 31°35' E 121°27'0 0.0
2017-Jun-18 14:49N 31°35' E 121°27'0 0.0
2017-Jun-18 13:55N 31°35' E 121°27'0 0.0
2017-Jun-18 13:28N 31°35' E 121°27'0 0.0
2017-Jun-18 12:58N 31°35' E 121°27'0 0.0
2017-Jun-18 12:28N 31°35' E 121°27'0 0.0
2017-Jun-18 11:58N 31°35' E 121°27'0 0.0
2017-Jun-18 11:28N 31°35' E 121°27'0 0.0
2017-Jun-18 10:55N 31°35' E 121°27'0 0.0
2017-Jun-18 10:25N 31°35' E 121°27'0 0.0
2017-Jun-18 09:58N 31°35' E 121°27'0 0.0
2017-Jun-18 09:25N 31°35' E 121°27'0 0.0
2017-Jun-18 08:58N 31°35' E 121°27'0 0.0
2017-Jun-18 08:28N 31°35' E 121°27'0 0.0
2017-Jun-18 07:58N 31°35' E 121°27'0 0.0
2017-Jun-18 07:28N 31°35' E 121°27'0 0.0
2017-Jun-18 06:58N 31°35' E 121°27'0 0.0
2017-Jun-18 06:28N 31°35' E 121°27'0 0.0
2017-Jun-18 05:58N 31°35' E 121°27'0 0.0
2017-Jun-18 05:28N 31°35' E 121°27'0 0.0
2017-Jun-18 04:58N 31°35' E 121°27'0 0.0
2017-Jun-18 04:28N 31°35' E 121°27'0 0.0
2017-Jun-18 03:55N 31°35' E 121°27'0 0.0
2017-Jun-18 03:28N 31°35' E 121°27'0 0.0
2017-Jun-18 02:58N 31°35' E 121°27'0 0.0
2017-Jun-18 02:22N 31°35' E 121°27'0 0.0
2017-Jun-18 01:58N 31°35' E 121°27'0 0.0
2017-Jun-18 01:28N 31°35' E 121°27'0 0.0
2017-Jun-18 00:58N 31°35' E 121°27'0 0.0
2017-Jun-18 00:22N 31°35' E 121°27'0 0.0
2017-Jun-17 23:58N 31°35' E 121°27'0 0.0
2017-Jun-17 23:28N 31°35' E 121°27'0 0.0
2017-Jun-17 22:58N 31°35' E 121°27'0 0.0
2017-Jun-17 22:28N 31°35' E 121°27'0 0.0
2017-Jun-17 21:58N 31°35' E 121°27'0 0.0
2017-Jun-17 21:28N 31°35' E 121°27'0 0.0
2017-Jun-17 20:58N 31°35' E 121°27'0 0.0
2017-Jun-17 20:28N 31°35' E 121°27'0 0.0
2017-Jun-17 19:58N 31°35' E 121°27'0 0.0
2017-Jun-17 19:25N 31°35' E 121°27'0 0.0
2017-Jun-17 18:58N 31°35' E 121°27'0 0.0
2017-Jun-17 18:28N 31°35' E 121°27'0 0.0
2017-Jun-17 17:58N 31°35' E 121°27'0 0.0
2017-Jun-17 17:28N 31°35' E 121°27'0 0.0
2017-Jun-17 16:55N 31°35' E 121°27'0 0.0
2017-Jun-17 16:28N 31°35' E 121°27'0 0.0
2017-Jun-17 15:58N 31°35' E 121°27'0 0.0
2017-Jun-17 15:25N 31°35' E 121°27'0 0.0
2017-Jun-17 14:58N 31°35' E 121°27'0 0.0
2017-Jun-17 14:28N 31°35' E 121°27'0 0.0
2017-Jun-17 13:28N 31°35' E 121°27'0 0.0
2017-Jun-17 12:58N 31°35' E 121°27'0 0.0
2017-Jun-17 12:28N 31°35' E 121°27'0 0.0
2017-Jun-17 11:55N 31°35' E 121°27'0 0.0
2017-Jun-17 11:28N 31°35' E 121°27'0 0.0
2017-Jun-17 10:55N 31°35' E 121°27'0 0.0
2017-Jun-17 10:28N 31°35' E 121°27'0 0.0
2017-Jun-17 09:55N 31°35' E 121°27'0 0.0
2017-Jun-17 09:28N 31°35' E 121°27'0 0.0
2017-Jun-17 08:58N 31°35' E 121°27'0 0.0
2017-Jun-17 08:25N 31°35' E 121°27'0 0.0
2017-Jun-17 07:55N 31°35' E 121°27'0 0.0
2017-Jun-17 07:25N 31°35' E 121°27'0 0.0
2017-Jun-17 06:58N 31°35' E 121°27'0 0.0
2017-Jun-17 06:25N 31°35' E 121°27'0 0.0
2017-Jun-17 05:55N 31°35' E 121°27'0 0.0
2017-Jun-17 05:28N 31°35' E 121°27'0 0.0
2017-Jun-17 04:58N 31°35' E 121°27'0 0.0
2017-Jun-17 04:19N 31°35' E 121°27'0 0.0
2017-Jun-17 03:58N 31°35' E 121°27'0 0.0
2017-Jun-17 03:28N 31°35' E 121°27'0 0.0
2017-Jun-17 02:58N 31°35' E 121°27'0 0.0
2017-Jun-17 02:28N 31°35' E 121°27'0 0.0
2017-Jun-17 01:58N 31°35' E 121°27'0 0.0
2017-Jun-17 01:28N 31°35' E 121°27'0 0.0
2017-Jun-17 00:58N 31°35' E 121°27'0 0.0
2017-Jun-17 00:28N 31°35' E 121°27'0 0.0
2017-Jun-16 23:58N 31°35' E 121°27'0 0.0
2017-Jun-16 23:28N 31°35' E 121°27'0 0.0
2017-Jun-16 22:58N 31°35' E 121°27'0 0.0
2017-Jun-16 22:25N 31°35' E 121°27'0 0.0
2017-Jun-16 21:55N 31°35' E 121°27'0 0.0
2017-Jun-16 21:28N 31°35' E 121°27'0 0.0
2017-Jun-16 20:58N 31°35' E 121°27'0 0.0
2017-Jun-16 20:28N 31°35' E 121°27'0 0.0
2017-Jun-16 19:58N 31°35' E 121°27'0 0.0
2017-Jun-16 19:28N 31°35' E 121°27'0 0.0
2017-Jun-16 18:58N 31°35' E 121°27'0 0.0
2017-Jun-16 18:28N 31°35' E 121°27'0 0.0
2017-Jun-16 17:55N 31°35' E 121°27'0 0.0
2017-Jun-16 17:28N 31°35' E 121°27'0 0.0
2017-Jun-16 16:58N 31°35' E 121°27'0 0.0
2017-Jun-16 16:25N 31°35' E 121°27'0 0.0
2017-Jun-16 15:58N 31°35' E 121°27'0 0.0
2017-Jun-16 15:28N 31°35' E 121°27'0 0.0
2017-Jun-16 14:58N 31°35' E 121°27'0 0.0
2017-Jun-16 14:28N 31°35' E 121°27'0 0.0
2017-Jun-16 13:28N 31°35' E 121°27'0 0.0
2017-Jun-16 12:58N 31°35' E 121°27'0 0.0
2017-Jun-16 12:28N 31°35' E 121°27'0 0.0
2017-Jun-16 11:58N 31°35' E 121°27'0 0.0
2017-Jun-16 11:28N 31°35' E 121°27'0 0.0
2017-Jun-16 10:49N 31°35' E 121°27'0 0.0
2017-Jun-16 10:28N 31°35' E 121°27'0 0.0
2017-Jun-16 09:58N 31°35' E 121°27'0 0.0
2017-Jun-16 09:28N 31°35' E 121°27'0 0.0
2017-Jun-16 08:58N 31°35' E 121°27'0 0.0
2017-Jun-16 08:28N 31°35' E 121°27'0 0.0
2017-Jun-16 07:58N 31°35' E 121°27'0 0.0
2017-Jun-16 07:22N 31°35' E 121°27'0 0.0
2017-Jun-16 06:55N 31°35' E 121°27'0 0.0
2017-Jun-16 06:28N 31°35' E 121°27'0 0.0
2017-Jun-16 05:58N 31°35' E 121°27'0 0.0
2017-Jun-16 05:28N 31°35' E 121°27'0 0.0
2017-Jun-16 04:58N 31°35' E 121°27'0 0.0
2017-Jun-16 04:28N 31°35' E 121°27'0 0.0
2017-Jun-16 03:58N 31°35' E 121°27'0 0.0
2017-Jun-16 03:25N 31°35' E 121°27'0 0.0
2017-Jun-16 02:58N 31°35' E 121°27'0 0.0
2017-Jun-16 02:25N 31°35' E 121°27'0 0.0
2017-Jun-16 01:58N 31°35' E 121°27'0 0.0
2017-Jun-16 01:28N 31°35' E 121°27'0 0.0
2017-Jun-16 00:55N 31°35' E 121°27'0 0.0
2017-Jun-16 00:28N 31°35' E 121°27'0 0.0
2017-Jun-15 23:58N 31°35' E 121°27'0 0.0
2017-Jun-15 23:25N 31°35' E 121°27'0 0.0
2017-Jun-15 22:58N 31°35' E 121°27'0 0.0
2017-Jun-15 22:28N 31°35' E 121°27'0 0.0
2017-Jun-15 21:58N 31°35' E 121°27'0 0.0
2017-Jun-15 21:28N 31°35' E 121°27'0 0.0
2017-Jun-15 20:58N 31°35' E 121°27'0 0.0
2017-Jun-15 20:28N 31°35' E 121°27'0 0.0
2017-Jun-15 19:55N 31°35' E 121°27'0 0.0
2017-Jun-15 19:28N 31°35' E 121°27'0 0.0
2017-Jun-15 18:58N 31°35' E 121°27'0 0.0
2017-Jun-15 18:25N 31°35' E 121°27'0 0.0
2017-Jun-15 17:55N 31°35' E 121°27'0 0.0
2017-Jun-15 17:28N 31°35' E 121°27'0 0.0
2017-Jun-15 16:55N 31°35' E 121°27'0 0.0
2017-Jun-15 16:28N 31°35' E 121°27'0 0.0
2017-Jun-15 15:58N 31°35' E 121°27'0 0.0
2017-Jun-15 15:28N 31°35' E 121°27'0 0.0
2017-Jun-15 14:55N 31°35' E 121°27'0 0.0
2017-Jun-15 13:58N 31°35' E 121°27'0 0.0
2017-Jun-15 13:28N 31°35' E 121°27'0 0.0
2017-Jun-15 12:58N 31°35' E 121°27'0 0.0
2017-Jun-15 12:28N 31°35' E 121°27'0 0.0
2017-Jun-15 11:58N 31°35' E 121°27'0 0.0
2017-Jun-15 11:25N 31°35' E 121°27'0 0.0
2017-Jun-15 10:58N 31°35' E 121°27'0 0.0
2017-Jun-15 10:25N 31°35' E 121°27'0 0.0
2017-Jun-15 09:58N 31°35' E 121°27'0 0.0
2017-Jun-15 09:28N 31°35' E 121°27'0 0.0
2017-Jun-15 08:58N 31°35' E 121°27'0 0.0
2017-Jun-15 08:28N 31°35' E 121°27'0 0.0
2017-Jun-15 07:58N 31°35' E 121°27'0 0.0
2017-Jun-15 07:25N 31°35' E 121°27'0 0.0
2017-Jun-15 06:55N 31°35' E 121°27'0 0.0
2017-Jun-15 06:28N 31°35' E 121°27'0 0.0
2017-Jun-15 05:58N 31°35' E 121°27'0 0.0
2017-Jun-15 05:19N 31°35' E 121°27'0 0.0
2017-Jun-15 04:58N 31°35' E 121°27'0 0.0
2017-Jun-15 04:28N 31°35' E 121°27'0 0.0
2017-Jun-15 03:58N 31°35' E 121°27'0 0.0
2017-Jun-15 03:28N 31°35' E 121°27'0 0.0
2017-Jun-15 02:52N 31°35' E 121°27'0 0.0
2017-Jun-15 02:28N 31°35' E 121°27'0 0.0
2017-Jun-14 19:58N 31°35' E 121°27'0 0.0
2017-Jun-14 19:25N 31°35' E 121°27'0 0.0
2017-Jun-14 18:58N 31°35' E 121°27'0 0.0
2017-Jun-14 18:28N 31°35' E 121°27'0 0.0
2017-Jun-14 17:58N 31°35' E 121°27'0 0.0
2017-Jun-14 17:22N 31°35' E 121°27'0 0.0
2017-Jun-14 16:58N 31°35' E 121°27'0 0.0
2017-Jun-14 16:28N 31°35' E 121°27'0 0.0
2017-Jun-14 15:58N 31°35' E 121°27'0 0.0
2017-Jun-14 15:28N 31°35' E 121°27'0 0.0
2017-Jun-14 14:58N 31°35' E 121°27'0 0.0
2017-Jun-14 13:58N 31°35' E 121°27'0 0.0
2017-Jun-14 13:28N 31°35' E 121°27'0 0.0
2017-Jun-14 12:58N 31°35' E 121°27'0 0.0
2017-Jun-14 12:28N 31°35' E 121°27'0 0.0
2017-Jun-14 11:55N 31°35' E 121°27'0 0.0
2017-Jun-14 11:28N 31°35' E 121°27'0 0.0
2017-Jun-14 10:58N 31°35' E 121°27'0 0.0
2017-Jun-14 10:28N 31°35' E 121°27'0 0.0
2017-Jun-14 09:52N 31°35' E 121°27'0 0.0
2017-Jun-14 09:28N 31°35' E 121°27'0 0.0
2017-Jun-14 08:58N 31°35' E 121°27'0 0.0
2017-Jun-14 08:22N 31°35' E 121°27'0 0.0
2017-Jun-14 07:58N 31°35' E 121°27'0 0.0
2017-Jun-14 07:28N 31°35' E 121°27'0 0.0
2017-Jun-14 06:58N 31°35' E 121°27'0 0.0
2017-Jun-14 06:28N 31°35' E 121°27'0 0.0
2017-Jun-14 05:58N 31°35' E 121°27'0 0.0
2017-Jun-14 05:28N 31°35' E 121°27'0 0.0
2017-Jun-14 04:58N 31°35' E 121°27'0 0.0
2017-Jun-14 04:28N 31°35' E 121°27'0 0.0
2017-Jun-14 03:58N 31°35' E 121°27'0 0.0
2017-Jun-14 03:28N 31°35' E 121°27'0 0.0
2017-Jun-14 02:55N 31°35' E 121°27'0 0.0
2017-Jun-14 02:28N 31°35' E 121°27'0 0.0
2017-Jun-14 01:58N 31°35' E 121°27'0 0.0
2017-Jun-14 01:28N 31°35' E 121°27'0 0.0
2017-Jun-14 00:49N 31°35' E 121°27'0 0.0
2017-Jun-14 00:28N 31°35' E 121°27'0 0.0
2017-Jun-13 23:58N 31°35' E 121°27'0 0.0
2017-Jun-13 23:28N 31°35' E 121°27'0 0.0
2017-Jun-13 22:58N 31°35' E 121°27'0 0.0
2017-Jun-13 22:28N 31°35' E 121°27'0 0.0
2017-Jun-13 21:58N 31°35' E 121°27'0 0.0
2017-Jun-13 21:25N 31°35' E 121°27'0 0.0
2017-Jun-13 20:55N 31°35' E 121°27'0 0.0
2017-Jun-13 20:25N 31°35' E 121°27'0 0.0
2017-Jun-13 19:58N 31°35' E 121°27'0 0.0
2017-Jun-13 19:28N 31°35' E 121°27'0 0.0
2017-Jun-13 18:55N 31°35' E 121°27'0 0.0
2017-Jun-13 18:28N 31°35' E 121°27'0 0.0
2017-Jun-13 17:58N 31°35' E 121°27'0 0.0
2017-Jun-13 17:28N 31°35' E 121°27'0 0.0
2017-Jun-13 16:58N 31°35' E 121°27'0 0.0
2017-Jun-13 16:25N 31°35' E 121°27'0 0.0
2017-Jun-13 15:58N 31°35' E 121°27'0 0.0
2017-Jun-13 15:25N 31°35' E 121°27'0 0.0
2017-Jun-13 14:58N 31°35' E 121°27'0 0.0
2017-Jun-13 13:58N 31°35' E 121°27'0 0.0
2017-Jun-13 13:28N 31°35' E 121°27'0 0.0
2017-Jun-13 12:58N 31°35' E 121°27'0 0.0
2017-Jun-13 12:25N 31°35' E 121°27'0 0.0
2017-Jun-13 11:58N 31°35' E 121°27'0 0.0
2017-Jun-13 11:28N 31°35' E 121°27'0 0.0
2017-Jun-13 10:58N 31°35' E 121°27'0 0.0
2017-Jun-13 10:25N 31°35' E 121°27'0 0.0
2017-Jun-13 09:58N 31°35' E 121°27'0 0.0
2017-Jun-13 09:28N 31°35' E 121°27'0 0.0
2017-Jun-13 08:58N 31°35' E 121°27'0 0.0
2017-Jun-13 08:28N 31°35' E 121°27'0 0.0
2017-Jun-13 07:58N 31°35' E 121°27'0 0.0
2017-Jun-13 07:25N 31°35' E 121°27'0 0.0
2017-Jun-13 06:55N 31°35' E 121°27'0 0.0
2017-Jun-13 06:28N 31°35' E 121°27'0 0.0
2017-Jun-13 05:58N 31°35' E 121°27'0 0.0
2017-Jun-13 05:28N 31°35' E 121°27'0 0.0
2017-Jun-13 04:58N 31°35' E 121°27'0 0.0
2017-Jun-13 04:25N 31°35' E 121°27'0 0.0
2017-Jun-13 03:58N 31°35' E 121°27'0 0.0
2017-Jun-13 03:28N 31°35' E 121°27'0 0.0
2017-Jun-13 02:58N 31°35' E 121°27'0 0.0
2017-Jun-13 02:28N 31°35' E 121°27'0 0.0
2017-Jun-13 01:58N 31°35' E 121°27'0 0.0
2017-Jun-13 01:25N 31°35' E 121°27'0 0.0
2017-Jun-13 00:55N 31°35' E 121°27'0 0.0
2017-Jun-13 00:28N 31°35' E 121°27'0 0.0
2017-Jun-12 23:58N 31°35' E 121°27'0 0.0
2017-Jun-12 23:28N 31°35' E 121°27'0 0.0
2017-Jun-12 22:55N 31°35' E 121°27'0 0.0
2017-Jun-12 22:28N 31°35' E 121°27'0 0.0
2017-Jun-12 21:58N 31°35' E 121°27'0 0.0
2017-Jun-12 21:25N 31°35' E 121°27'0 0.0
2017-Jun-12 20:58N 31°35' E 121°27'0 0.0
2017-Jun-12 20:28N 31°35' E 121°27'0 0.0
2017-Jun-12 19:58N 31°35' E 121°27'0 0.0
2017-Jun-12 19:28N 31°35' E 121°27'0 0.0
2017-Jun-12 18:58N 31°35' E 121°27'0 0.0
2017-Jun-12 18:28N 31°35' E 121°27'0 0.0
2017-Jun-12 17:58N 31°35' E 121°27'0 0.0
2017-Jun-12 17:28N 31°35' E 121°27'0 0.0
2017-Jun-12 16:49N 31°35' E 121°27'0 0.0
2017-Jun-12 16:28N 31°35' E 121°27'0 0.0
2017-Jun-12 15:58N 31°35' E 121°27'0 0.0
2017-Jun-12 15:25N 31°35' E 121°27'0 0.0
2017-Jun-12 14:58N 31°35' E 121°27'0 0.0
2017-Jun-12 14:28N 31°35' E 121°27'0 0.0
2017-Jun-12 13:28N 31°35' E 121°27'0 0.0
2017-Jun-12 12:58N 31°35' E 121°27'0 0.0
2017-Jun-12 12:28N 31°35' E 121°27'0 0.0
2017-Jun-12 11:58N 31°35' E 121°27'0 0.0
2017-Jun-12 11:28N 31°35' E 121°27'0 0.0
2017-Jun-12 10:58N 31°35' E 121°27'0 0.0
2017-Jun-12 10:28N 31°35' E 121°27'0 0.0
2017-Jun-12 09:55N 31°35' E 121°27'0 0.0
2017-Jun-12 09:28N 31°35' E 121°27'0 0.0
2017-Jun-12 08:58N 31°35' E 121°27'0 0.0
2017-Jun-12 08:28N 31°35' E 121°27'0 0.0
2017-Jun-12 07:58N 31°35' E 121°27'0 0.0
2017-Jun-12 07:28N 31°35' E 121°27'0 0.0
2017-Jun-12 06:58N 31°35' E 121°27'0 0.0
2017-Jun-12 06:28N 31°35' E 121°27'0 0.0
2017-Jun-12 05:58N 31°35' E 121°27'0 0.0
2017-Jun-12 05:28N 31°35' E 121°27'0 0.0
2017-Jun-12 04:58N 31°35' E 121°27'0 0.0
2017-Jun-12 04:22N 31°35' E 121°27'0 0.0
2017-Jun-12 03:55N 31°35' E 121°27'0 0.0
2017-Jun-12 03:28N 31°35' E 121°27'0 0.0
2017-Jun-12 02:58N 31°35' E 121°27'0 0.0
2017-Jun-12 02:28N 31°35' E 121°27'0 0.0
2017-Jun-12 01:58N 31°35' E 121°27'0 0.0
2017-Jun-12 01:25N 31°35' E 121°27'0 0.0
2017-Jun-12 00:58N 31°35' E 121°27'0 0.0
2017-Jun-12 00:28N 31°35' E 121°27'0 0.0
2017-Jun-11 23:58N 31°35' E 121°27'0 0.0
2017-Jun-11 23:28N 31°35' E 121°27'0 0.0
2017-Jun-11 22:58N 31°35' E 121°27'0 0.0
2017-Jun-11 22:28N 31°35' E 121°27'0 0.0
2017-Jun-11 21:58N 31°35' E 121°27'0 0.0
2017-Jun-11 21:28N 31°35' E 121°27'0 0.0
2017-Jun-11 20:55N 31°35' E 121°27'0 0.0
2017-Jun-11 20:28N 31°35' E 121°27'0 0.0
2017-Jun-11 19:55N 31°35' E 121°27'0 0.0
2017-Jun-11 19:28N 31°35' E 121°27'0 0.0
2017-Jun-11 18:58N 31°35' E 121°27'0 0.0
2017-Jun-11 18:28N 31°35' E 121°27'0 0.0
2017-Jun-11 17:55N 31°35' E 121°27'0 0.0
2017-Jun-11 17:28N 31°35' E 121°27'0 0.0
2017-Jun-11 16:58N 31°35' E 121°27'0 0.0
2017-Jun-11 16:25N 31°35' E 121°27'0 0.0
2017-Jun-11 15:58N 31°35' E 121°27'0 0.0
2017-Jun-11 15:25N 31°35' E 121°27'0 0.0
2017-Jun-11 14:58N 31°35' E 121°27'0 0.0
2017-Jun-11 14:28N 31°35' E 121°27'0 0.0
2017-Jun-11 13:28N 31°35' E 121°27'0 0.0
2017-Jun-11 12:52N 31°35' E 121°27'0 0.0
2017-Jun-11 12:28N 31°35' E 121°27'0 0.0
2017-Jun-11 11:58N 31°35' E 121°27'0 0.0
2017-Jun-11 11:28N 31°35' E 121°27'0 0.0
2017-Jun-11 10:58N 31°35' E 121°27'0 0.0
2017-Jun-11 10:28N 31°35' E 121°27'0 0.0
2017-Jun-11 09:58N 31°35' E 121°27'0 0.0
2017-Jun-11 09:28N 31°35' E 121°27'0 0.0
2017-Jun-11 08:58N 31°35' E 121°27'0 0.0
2017-Jun-11 08:28N 31°35' E 121°27'0 0.0
2017-Jun-11 07:58N 31°35' E 121°27'0 0.0
2017-Jun-11 07:25N 31°35' E 121°27'0 0.0
2017-Jun-11 06:52N 31°35' E 121°27'0 0.0
2017-Jun-11 06:28N 31°35' E 121°27'0 0.0
2017-Jun-11 05:58N 31°35' E 121°27'0 0.0
2017-Jun-11 05:28N 31°35' E 121°27'0 0.0
2017-Jun-11 04:51N 31°35' E 121°27'0 0.0
2017-Jun-11 04:27N 31°35' E 121°27'0 0.0
2017-Jun-11 04:00N 31°35' E 121°27'0 0.0
2017-Jun-11 03:27N 31°35' E 121°27'0 0.0
2017-Jun-11 03:00N 31°35' E 121°27'0 0.0
2017-Jun-11 02:30N 31°35' E 121°27'  

Dump ship's entire track history